sensor_id;sensor_type;location;lat;lon;timestamp;temperature;humidity
55771;DHT22;41687;-33.234;-60.334;2022-12-05T00:01:39;29.00;40.80
55771;DHT22;41687;-33.234;-60.334;2022-12-05T00:04:12;28.90;40.80
55771;DHT22;41687;-33.234;-60.334;2022-12-05T00:06:40;28.80;41.40
55771;DHT22;41687;-33.234;-60.334;2022-12-05T00:09:11;28.80;40.90
55771;DHT22;41687;-33.234;-60.334;2022-12-05T00:11:41;28.70;40.90
55771;DHT22;41687;-33.234;-60.334;2022-12-05T00:14:09;28.70;40.90
55771;DHT22;41687;-33.234;-60.334;2022-12-05T00:16:39;28.60;41.10
55771;DHT22;41687;-33.234;-60.334;2022-12-05T00:19:08;28.60;41.50
55771;DHT22;41687;-33.234;-60.334;2022-12-05T00:21:37;28.50;41.70
55771;DHT22;41687;-33.234;-60.334;2022-12-05T00:24:07;28.40;42.40
55771;DHT22;41687;-33.234;-60.334;2022-12-05T00:26:35;28.30;41.60
55771;DHT22;41687;-33.234;-60.334;2022-12-05T00:29:03;28.30;42.60
55771;DHT22;41687;-33.234;-60.334;2022-12-05T00:31:32;28.20;43.40
55771;DHT22;41687;-33.234;-60.334;2022-12-05T00:34:00;28.10;42.80
55771;DHT22;41687;-33.234;-60.334;2022-12-05T00:36:30;28.00;42.70
55771;DHT22;41687;-33.234;-60.334;2022-12-05T00:39:02;28.00;42.90
55771;DHT22;41687;-33.234;-60.334;2022-12-05T00:41:30;27.90;42.90
55771;DHT22;41687;-33.234;-60.334;2022-12-05T00:43:59;27.80;43.40
55771;DHT22;41687;-33.234;-60.334;2022-12-05T00:46:29;27.80;43.30
55771;DHT22;41687;-33.234;-60.334;2022-12-05T00:48:59;27.70;43.10
55771;DHT22;41687;-33.234;-60.334;2022-12-05T00:51:29;27.60;43.40
55771;DHT22;41687;-33.234;-60.334;2022-12-05T00:54:00;27.60;44.00
55771;DHT22;41687;-33.234;-60.334;2022-12-05T00:56:29;27.60;43.90
55771;DHT22;41687;-33.234;-60.334;2022-12-05T00:58:58;27.50;43.50
55771;DHT22;41687;-33.234;-60.334;2022-12-05T01:01:34;27.50;43.40
55771;DHT22;41687;-33.234;-60.334;2022-12-05T01:04:09;27.50;44.00
55771;DHT22;41687;-33.234;-60.334;2022-12-05T01:06:37;27.50;43.50
55771;DHT22;41687;-33.234;-60.334;2022-12-05T01:09:06;27.40;43.50
55771;DHT22;41687;-33.234;-60.334;2022-12-05T01:11:34;27.40;43.40
55771;DHT22;41687;-33.234;-60.334;2022-12-05T01:14:01;27.40;43.40
55771;DHT22;41687;-33.234;-60.334;2022-12-05T01:16:33;27.40;43.40
55771;DHT22;41687;-33.234;-60.334;2022-12-05T01:19:04;27.30;43.90
55771;DHT22;41687;-33.234;-60.334;2022-12-05T01:21:32;27.30;43.90
55771;DHT22;41687;-33.234;-60.334;2022-12-05T01:24:00;27.20;43.80
55771;DHT22;41687;-33.234;-60.334;2022-12-05T01:26:28;27.20;43.80
55771;DHT22;41687;-33.234;-60.334;2022-12-05T01:28:56;27.20;43.80
55771;DHT22;41687;-33.234;-60.334;2022-12-05T01:31:32;27.10;43.80
55771;DHT22;41687;-33.234;-60.334;2022-12-05T01:34:03;27.10;44.90
55771;DHT22;41687;-33.234;-60.334;2022-12-05T01:36:32;27.00;43.80
55771;DHT22;41687;-33.234;-60.334;2022-12-05T01:39:00;27.00;43.60
55771;DHT22;41687;-33.234;-60.334;2022-12-05T01:41:30;27.00;43.70
55771;DHT22;41687;-33.234;-60.334;2022-12-05T01:44:05;27.00;43.70
55771;DHT22;41687;-33.234;-60.334;2022-12-05T01:46:37;27.00;43.60
55771;DHT22;41687;-33.234;-60.334;2022-12-05T01:49:13;27.00;43.80
55771;DHT22;41687;-33.234;-60.334;2022-12-05T01:51:53;26.90;44.50
55771;DHT22;41687;-33.234;-60.334;2022-12-05T01:54:22;26.80;44.80
55771;DHT22;41687;-33.234;-60.334;2022-12-05T01:56:55;26.80;44.30
55771;DHT22;41687;-33.234;-60.334;2022-12-05T01:59:27;26.90;44.20
55771;DHT22;41687;-33.234;-60.334;2022-12-05T02:01:55;26.80;43.70
55771;DHT22;41687;-33.234;-60.334;2022-12-05T02:04:22;26.80;43.70
55771;DHT22;41687;-33.234;-60.334;2022-12-05T02:06:51;26.80;43.60
55771;DHT22;41687;-33.234;-60.334;2022-12-05T02:09:18;26.80;43.40
55771;DHT22;41687;-33.234;-60.334;2022-12-05T02:11:54;26.80;43.60
55771;DHT22;41687;-33.234;-60.334;2022-12-05T02:31:14;26.40;45.40
55771;DHT22;41687;-33.234;-60.334;2022-12-05T02:39:15;26.10;44.40
55771;DHT22;41687;-33.234;-60.334;2022-12-05T02:47:06;26.10;45.80
55771;DHT22;41687;-33.234;-60.334;2022-12-05T02:49:36;25.90;45.00
55771;DHT22;41687;-33.234;-60.334;2022-12-05T02:52:09;25.80;44.70
55771;DHT22;41687;-33.234;-60.334;2022-12-05T02:54:40;25.90;45.10
55771;DHT22;41687;-33.234;-60.334;2022-12-05T02:57:09;25.80;44.70
55771;DHT22;41687;-33.234;-60.334;2022-12-05T02:59:37;25.70;45.20
55771;DHT22;41687;-33.234;-60.334;2022-12-05T03:02:08;25.70;45.00
55771;DHT22;41687;-33.234;-60.334;2022-12-05T03:04:36;25.70;45.30
55771;DHT22;41687;-33.234;-60.334;2022-12-05T03:07:07;25.80;45.10
55771;DHT22;41687;-33.234;-60.334;2022-12-05T03:09:54;25.70;45.50
55771;DHT22;41687;-33.234;-60.334;2022-12-05T03:12:29;25.80;45.10
55771;DHT22;41687;-33.234;-60.334;2022-12-05T03:15:18;25.70;45.60
55771;DHT22;41687;-33.234;-60.334;2022-12-05T03:17:56;25.70;45.90
55771;DHT22;41687;-33.234;-60.334;2022-12-05T03:20:37;25.80;45.50
55771;DHT22;41687;-33.234;-60.334;2022-12-05T03:23:19;25.70;45.20
55771;DHT22;41687;-33.234;-60.334;2022-12-05T03:26:23;25.70;45.90
55771;DHT22;41687;-33.234;-60.334;2022-12-05T03:32:36;25.60;45.90
55771;DHT22;41687;-33.234;-60.334;2022-12-05T03:35:11;25.60;46.50
55771;DHT22;41687;-33.234;-60.334;2022-12-05T03:37:58;25.60;45.10
55771;DHT22;41687;-33.234;-60.334;2022-12-05T03:40:31;25.50;45.40
55771;DHT22;41687;-33.234;-60.334;2022-12-05T03:45:38;25.60;45.40
55771;DHT22;41687;-33.234;-60.334;2022-12-05T03:50:52;25.50;45.70
55771;DHT22;41687;-33.234;-60.334;2022-12-05T03:53:30;25.40;44.80
55771;DHT22;41687;-33.234;-60.334;2022-12-05T03:56:09;25.40;45.90
55771;DHT22;41687;-33.234;-60.334;2022-12-05T03:59:00;25.30;46.00
55771;DHT22;41687;-33.234;-60.334;2022-12-05T04:01:28;25.30;46.20
55771;DHT22;41687;-33.234;-60.334;2022-12-05T04:04:01;25.30;44.60
55771;DHT22;41687;-33.234;-60.334;2022-12-05T04:06:34;25.30;45.30
55771;DHT22;41687;-33.234;-60.334;2022-12-05T04:09:16;25.20;45.10
55771;DHT22;41687;-33.234;-60.334;2022-12-05T04:11:47;25.20;46.00
55771;DHT22;41687;-33.234;-60.334;2022-12-05T04:14:31;25.20;44.40
55771;DHT22;41687;-33.234;-60.334;2022-12-05T04:17:11;25.20;45.70
55771;DHT22;41687;-33.234;-60.334;2022-12-05T04:19:52;25.20;45.10
55771;DHT22;41687;-33.234;-60.334;2022-12-05T04:22:40;25.10;45.10
55771;DHT22;41687;-33.234;-60.334;2022-12-05T04:25:11;25.10;44.50
55771;DHT22;41687;-33.234;-60.334;2022-12-05T04:31:02;25.00;44.30
55771;DHT22;41687;-33.234;-60.334;2022-12-05T04:34:00;25.00;45.30
55771;DHT22;41687;-33.234;-60.334;2022-12-05T04:36:50;24.90;45.50
55771;DHT22;41687;-33.234;-60.334;2022-12-05T04:42:07;24.90;44.80
55771;DHT22;41687;-33.234;-60.334;2022-12-05T04:44:42;24.80;44.50
55771;DHT22;41687;-33.234;-60.334;2022-12-05T04:47:11;24.80;45.10
55771;DHT22;41687;-33.234;-60.334;2022-12-05T04:49:42;24.80;44.20
55771;DHT22;41687;-33.234;-60.334;2022-12-05T04:52:11;24.70;44.30
55771;DHT22;41687;-33.234;-60.334;2022-12-05T04:54:44;24.70;44.20
55771;DHT22;41687;-33.234;-60.334;2022-12-05T04:59:52;24.70;44.70
55771;DHT22;41687;-33.234;-60.334;2022-12-05T05:03:00;24.70;44.00
55771;DHT22;41687;-33.234;-60.334;2022-12-05T05:05:32;24.70;45.30
55771;DHT22;41687;-33.234;-60.334;2022-12-05T05:08:01;24.70;44.40
55771;DHT22;41687;-33.234;-60.334;2022-12-05T05:10:38;24.60;44.00
55771;DHT22;41687;-33.234;-60.334;2022-12-05T05:13:08;24.50;44.80
55771;DHT22;41687;-33.234;-60.334;2022-12-05T05:15:36;24.30;45.20
55771;DHT22;41687;-33.234;-60.334;2022-12-05T05:18:03;24.40;45.10
55771;DHT22;41687;-33.234;-60.334;2022-12-05T05:20:31;24.50;44.50
55771;DHT22;41687;-33.234;-60.334;2022-12-05T05:22:59;24.50;44.50
55771;DHT22;41687;-33.234;-60.334;2022-12-05T05:25:26;24.50;44.70
55771;DHT22;41687;-33.234;-60.334;2022-12-05T05:27:55;24.50;44.70
55771;DHT22;41687;-33.234;-60.334;2022-12-05T05:30:24;24.50;44.70
55771;DHT22;41687;-33.234;-60.334;2022-12-05T05:32:52;24.50;44.70
55771;DHT22;41687;-33.234;-60.334;2022-12-05T05:35:20;24.40;45.10
55771;DHT22;41687;-33.234;-60.334;2022-12-05T05:37:48;24.40;44.90
55771;DHT22;41687;-33.234;-60.334;2022-12-05T05:40:16;24.30;44.70
55771;DHT22;41687;-33.234;-60.334;2022-12-05T05:42:45;24.20;45.40
55771;DHT22;41687;-33.234;-60.334;2022-12-05T05:45:14;24.20;45.20
55771;DHT22;41687;-33.234;-60.334;2022-12-05T05:47:43;24.30;45.40
55771;DHT22;41687;-33.234;-60.334;2022-12-05T05:50:11;24.20;45.60
55771;DHT22;41687;-33.234;-60.334;2022-12-05T05:52:39;24.10;45.90
55771;DHT22;41687;-33.234;-60.334;2022-12-05T05:55:07;24.10;45.70
55771;DHT22;41687;-33.234;-60.334;2022-12-05T05:57:36;24.20;46.20
55771;DHT22;41687;-33.234;-60.334;2022-12-05T06:00:05;24.00;46.50
55771;DHT22;41687;-33.234;-60.334;2022-12-05T06:02:35;24.10;46.90
55771;DHT22;41687;-33.234;-60.334;2022-12-05T06:05:03;24.00;46.60
55771;DHT22;41687;-33.234;-60.334;2022-12-05T06:07:31;24.00;46.20
55771;DHT22;41687;-33.234;-60.334;2022-12-05T06:09:58;24.00;46.00
55771;DHT22;41687;-33.234;-60.334;2022-12-05T06:12:26;24.00;46.20
55771;DHT22;41687;-33.234;-60.334;2022-12-05T06:14:54;23.90;46.30
55771;DHT22;41687;-33.234;-60.334;2022-12-05T06:17:21;23.90;46.00
55771;DHT22;41687;-33.234;-60.334;2022-12-05T06:19:49;23.90;46.00
55771;DHT22;41687;-33.234;-60.334;2022-12-05T06:22:17;23.80;46.00
55771;DHT22;41687;-33.234;-60.334;2022-12-05T06:24:44;23.80;45.80
55771;DHT22;41687;-33.234;-60.334;2022-12-05T06:27:12;23.80;45.60
55771;DHT22;41687;-33.234;-60.334;2022-12-05T06:29:39;23.70;45.40
55771;DHT22;41687;-33.234;-60.334;2022-12-05T06:32:08;23.80;45.40
55771;DHT22;41687;-33.234;-60.334;2022-12-05T06:34:37;23.70;45.60
55771;DHT22;41687;-33.234;-60.334;2022-12-05T06:37:04;23.80;45.50
55771;DHT22;41687;-33.234;-60.334;2022-12-05T06:39:32;23.50;45.70
55771;DHT22;41687;-33.234;-60.334;2022-12-05T06:42:00;23.60;45.60
55771;DHT22;41687;-33.234;-60.334;2022-12-05T06:44:28;23.50;45.70
55771;DHT22;41687;-33.234;-60.334;2022-12-05T06:46:56;23.50;45.60
55771;DHT22;41687;-33.234;-60.334;2022-12-05T06:49:24;23.50;45.60
55771;DHT22;41687;-33.234;-60.334;2022-12-05T06:52:00;23.50;45.70
55771;DHT22;41687;-33.234;-60.334;2022-12-05T06:54:28;23.40;46.20
55771;DHT22;41687;-33.234;-60.334;2022-12-05T06:56:56;23.50;46.10
55771;DHT22;41687;-33.234;-60.334;2022-12-05T06:59:24;23.40;45.80
55771;DHT22;41687;-33.234;-60.334;2022-12-05T07:01:51;23.40;45.80
55771;DHT22;41687;-33.234;-60.334;2022-12-05T07:04:21;23.40;46.10
55771;DHT22;41687;-33.234;-60.334;2022-12-05T07:06:53;23.30;46.60
55771;DHT22;41687;-33.234;-60.334;2022-12-05T07:09:23;23.20;46.30
55771;DHT22;41687;-33.234;-60.334;2022-12-05T07:12:14;23.20;46.40
55771;DHT22;41687;-33.234;-60.334;2022-12-05T07:14:43;23.20;46.20
55771;DHT22;41687;-33.234;-60.334;2022-12-05T07:17:10;23.20;46.10
55771;DHT22;41687;-33.234;-60.334;2022-12-05T07:19:38;23.00;46.40
55771;DHT22;41687;-33.234;-60.334;2022-12-05T07:22:06;23.00;46.90
55771;DHT22;41687;-33.234;-60.334;2022-12-05T07:24:33;22.90;46.60
55771;DHT22;41687;-33.234;-60.334;2022-12-05T07:27:01;22.90;46.40
55771;DHT22;41687;-33.234;-60.334;2022-12-05T07:29:29;23.00;46.90
55771;DHT22;41687;-33.234;-60.334;2022-12-05T07:31:56;23.00;46.80
55771;DHT22;41687;-33.234;-60.334;2022-12-05T07:34:25;23.00;46.40
55771;DHT22;41687;-33.234;-60.334;2022-12-05T07:36:52;23.10;46.30
55771;DHT22;41687;-33.234;-60.334;2022-12-05T07:39:20;23.10;46.00
55771;DHT22;41687;-33.234;-60.334;2022-12-05T07:41:48;23.10;46.00
55771;DHT22;41687;-33.234;-60.334;2022-12-05T07:44:16;23.10;46.80
55771;DHT22;41687;-33.234;-60.334;2022-12-05T07:46:44;23.10;46.60
55771;DHT22;41687;-33.234;-60.334;2022-12-05T07:49:12;23.00;46.40
55771;DHT22;41687;-33.234;-60.334;2022-12-05T07:51:41;23.00;46.50
55771;DHT22;41687;-33.234;-60.334;2022-12-05T07:54:09;22.90;45.90
55771;DHT22;41687;-33.234;-60.334;2022-12-05T07:56:37;22.90;46.10
55771;DHT22;41687;-33.234;-60.334;2022-12-05T07:59:05;22.90;45.70
55771;DHT22;41687;-33.234;-60.334;2022-12-05T08:01:32;22.90;45.60
55771;DHT22;41687;-33.234;-60.334;2022-12-05T08:04:00;22.90;45.70
55771;DHT22;41687;-33.234;-60.334;2022-12-05T08:06:29;22.90;45.80
55771;DHT22;41687;-33.234;-60.334;2022-12-05T08:08:57;22.80;46.20
55771;DHT22;41687;-33.234;-60.334;2022-12-05T08:11:30;22.90;46.20
55771;DHT22;41687;-33.234;-60.334;2022-12-05T08:14:02;22.90;46.60
55771;DHT22;41687;-33.234;-60.334;2022-12-05T08:16:30;22.80;46.50
55771;DHT22;41687;-33.234;-60.334;2022-12-05T08:19:04;22.90;46.60
55771;DHT22;41687;-33.234;-60.334;2022-12-05T08:21:32;22.90;46.90
55771;DHT22;41687;-33.234;-60.334;2022-12-05T08:24:02;22.90;46.50
55771;DHT22;41687;-33.234;-60.334;2022-12-05T08:26:31;22.80;46.60
55771;DHT22;41687;-33.234;-60.334;2022-12-05T08:29:12;22.80;46.60
55771;DHT22;41687;-33.234;-60.334;2022-12-05T08:31:46;22.70;47.60
55771;DHT22;41687;-33.234;-60.334;2022-12-05T08:34:15;22.70;47.00
55771;DHT22;41687;-33.234;-60.334;2022-12-05T08:36:44;22.70;46.80
55771;DHT22;41687;-33.234;-60.334;2022-12-05T08:39:13;22.60;47.20
55771;DHT22;41687;-33.234;-60.334;2022-12-05T08:41:42;22.60;46.20
55771;DHT22;41687;-33.234;-60.334;2022-12-05T08:44:11;22.60;46.70
55771;DHT22;41687;-33.234;-60.334;2022-12-05T08:46:44;22.50;46.40
55771;DHT22;41687;-33.234;-60.334;2022-12-05T08:49:12;22.50;47.40
55771;DHT22;41687;-33.234;-60.334;2022-12-05T08:51:40;22.50;47.00
55771;DHT22;41687;-33.234;-60.334;2022-12-05T08:54:09;22.50;47.70
55771;DHT22;41687;-33.234;-60.334;2022-12-05T08:56:36;22.60;46.90
55771;DHT22;41687;-33.234;-60.334;2022-12-05T08:59:05;22.50;47.30
55771;DHT22;41687;-33.234;-60.334;2022-12-05T09:01:33;22.50;48.00
55771;DHT22;41687;-33.234;-60.334;2022-12-05T09:04:05;22.50;47.60
55771;DHT22;41687;-33.234;-60.334;2022-12-05T09:06:33;22.50;47.80
55771;DHT22;41687;-33.234;-60.334;2022-12-05T09:09:04;22.50;47.70
55771;DHT22;41687;-33.234;-60.334;2022-12-05T09:11:35;22.50;48.10
55771;DHT22;41687;-33.234;-60.334;2022-12-05T09:14:04;22.50;48.30
55771;DHT22;41687;-33.234;-60.334;2022-12-05T09:16:36;22.60;48.10
55771;DHT22;41687;-33.234;-60.334;2022-12-05T09:19:14;22.60;47.90
55771;DHT22;41687;-33.234;-60.334;2022-12-05T09:21:42;22.60;48.50
55771;DHT22;41687;-33.234;-60.334;2022-12-05T09:24:11;22.60;47.70
55771;DHT22;41687;-33.234;-60.334;2022-12-05T09:26:40;22.80;47.20
55771;DHT22;41687;-33.234;-60.334;2022-12-05T09:29:09;22.90;47.00
55771;DHT22;41687;-33.234;-60.334;2022-12-05T09:31:38;22.90;47.20
55771;DHT22;41687;-33.234;-60.334;2022-12-05T09:34:10;22.90;47.70
55771;DHT22;41687;-33.234;-60.334;2022-12-05T09:36:39;23.00;47.60
55771;DHT22;41687;-33.234;-60.334;2022-12-05T09:39:07;23.00;47.10
55771;DHT22;41687;-33.234;-60.334;2022-12-05T09:42:08;23.10;47.10
55771;DHT22;41687;-33.234;-60.334;2022-12-05T09:45:02;23.10;48.20
55771;DHT22;41687;-33.234;-60.334;2022-12-05T09:47:53;23.10;47.60
55771;DHT22;41687;-33.234;-60.334;2022-12-05T09:50:31;23.20;47.60
55771;DHT22;41687;-33.234;-60.334;2022-12-05T09:55:48;23.30;47.20
55771;DHT22;41687;-33.234;-60.334;2022-12-05T09:58:26;23.30;48.80
55771;DHT22;41687;-33.234;-60.334;2022-12-05T10:01:11;23.40;47.60
55771;DHT22;41687;-33.234;-60.334;2022-12-05T10:04:01;23.50;47.30
55771;DHT22;41687;-33.234;-60.334;2022-12-05T10:06:39;23.60;46.90
55771;DHT22;41687;-33.234;-60.334;2022-12-05T10:15:07;23.70;47.20
55771;DHT22;41687;-33.234;-60.334;2022-12-05T10:17:46;23.80;47.30
55771;DHT22;41687;-33.234;-60.334;2022-12-05T10:20:21;23.80;47.50
55771;DHT22;41687;-33.234;-60.334;2022-12-05T10:23:02;24.00;47.50
55771;DHT22;41687;-33.234;-60.334;2022-12-05T10:25:32;24.10;47.30
55771;DHT22;41687;-33.234;-60.334;2022-12-05T10:28:03;24.20;46.20
55771;DHT22;41687;-33.234;-60.334;2022-12-05T10:30:33;24.40;46.00
55771;DHT22;41687;-33.234;-60.334;2022-12-05T10:33:12;24.30;45.20
55771;DHT22;41687;-33.234;-60.334;2022-12-05T10:35:41;24.40;44.80
55771;DHT22;41687;-33.234;-60.334;2022-12-05T10:38:51;24.40;45.00
55771;DHT22;41687;-33.234;-60.334;2022-12-05T10:41:05;24.40;45.70
55771;DHT22;41687;-33.234;-60.334;2022-12-05T10:43:35;24.50;45.40
55771;DHT22;41687;-33.234;-60.334;2022-12-05T10:46:04;24.30;45.50
55771;DHT22;41687;-33.234;-60.334;2022-12-05T10:48:35;24.50;45.60
55771;DHT22;41687;-33.234;-60.334;2022-12-05T10:51:04;24.70;45.40
55771;DHT22;41687;-33.234;-60.334;2022-12-05T10:53:40;24.80;45.80
55771;DHT22;41687;-33.234;-60.334;2022-12-05T10:56:40;24.90;47.20
55771;DHT22;41687;-33.234;-60.334;2022-12-05T10:59:11;24.80;45.20
55771;DHT22;41687;-33.234;-60.334;2022-12-05T11:01:48;24.50;46.00
55771;DHT22;41687;-33.234;-60.334;2022-12-05T11:04:31;24.30;47.00
55771;DHT22;41687;-33.234;-60.334;2022-12-05T11:07:06;24.60;46.90
55771;DHT22;41687;-33.234;-60.334;2022-12-05T11:09:48;24.50;46.50
55771;DHT22;41687;-33.234;-60.334;2022-12-05T11:12:19;24.70;46.30
55771;DHT22;41687;-33.234;-60.334;2022-12-05T11:17:42;24.50;47.10
55771;DHT22;41687;-33.234;-60.334;2022-12-05T11:20:33;24.60;46.80
55771;DHT22;41687;-33.234;-60.334;2022-12-05T11:23:16;24.60;47.40
55771;DHT22;41687;-33.234;-60.334;2022-12-05T11:25:47;24.70;47.40
55771;DHT22;41687;-33.234;-60.334;2022-12-05T11:33:34;25.40;46.80
55771;DHT22;41687;-33.234;-60.334;2022-12-05T11:38:39;25.60;46.70
55771;DHT22;41687;-33.234;-60.334;2022-12-05T11:46:31;25.70;47.40
55771;DHT22;41687;-33.234;-60.334;2022-12-05T12:00:14;26.40;47.60
55771;DHT22;41687;-33.234;-60.334;2022-12-05T12:05:38;27.10;47.40
55771;DHT22;41687;-33.234;-60.334;2022-12-05T12:08:34;27.30;47.70
55771;DHT22;41687;-33.234;-60.334;2022-12-05T12:14:36;27.60;48.00
55771;DHT22;41687;-33.234;-60.334;2022-12-05T12:23:15;28.00;47.10
55771;DHT22;41687;-33.234;-60.334;2022-12-05T12:34:35;28.90;46.30
55771;DHT22;41687;-33.234;-60.334;2022-12-05T12:37:27;29.00;46.80
55771;DHT22;41687;-33.234;-60.334;2022-12-05T12:40:27;29.40;46.90
55771;DHT22;41687;-33.234;-60.334;2022-12-05T12:43:02;29.50;46.90
55771;DHT22;41687;-33.234;-60.334;2022-12-05T12:51:11;29.80;47.10
55771;DHT22;41687;-33.234;-60.334;2022-12-05T13:08:06;30.80;46.20
55771;DHT22;41687;-33.234;-60.334;2022-12-05T13:10:43;31.10;45.20
55771;DHT22;41687;-33.234;-60.334;2022-12-05T13:13:24;31.50;46.00
55771;DHT22;41687;-33.234;-60.334;2022-12-05T13:15:57;31.40;45.80
55771;DHT22;41687;-33.234;-60.334;2022-12-05T13:18:27;31.60;45.50
55771;DHT22;41687;-33.234;-60.334;2022-12-05T13:20:57;32.10;45.40
55771;DHT22;41687;-33.234;-60.334;2022-12-05T13:23:29;32.10;45.10
55771;DHT22;41687;-33.234;-60.334;2022-12-05T13:25:59;32.20;45.10
55771;DHT22;41687;-33.234;-60.334;2022-12-05T13:28:31;32.60;45.00
55771;DHT22;41687;-33.234;-60.334;2022-12-05T13:31:01;32.80;44.20
55771;DHT22;41687;-33.234;-60.334;2022-12-05T13:36:11;33.00;44.80
55771;DHT22;41687;-33.234;-60.334;2022-12-05T13:39:20;32.90;44.30
55771;DHT22;41687;-33.234;-60.334;2022-12-05T13:42:20;32.90;42.30
55771;DHT22;41687;-33.234;-60.334;2022-12-05T13:44:57;33.10;42.80
55771;DHT22;41687;-33.234;-60.334;2022-12-05T13:50:32;33.50;43.60
55771;DHT22;41687;-33.234;-60.334;2022-12-05T13:53:17;33.60;43.30
55771;DHT22;41687;-33.234;-60.334;2022-12-05T13:56:26;33.90;43.20
55771;DHT22;41687;-33.234;-60.334;2022-12-05T13:58:56;34.20;41.30
55771;DHT22;41687;-33.234;-60.334;2022-12-05T14:03:56;34.50;42.30
55771;DHT22;41687;-33.234;-60.334;2022-12-05T14:14:58;34.90;40.90
55771;DHT22;41687;-33.234;-60.334;2022-12-05T14:17:41;34.40;40.20
55771;DHT22;41687;-33.234;-60.334;2022-12-05T14:34:35;34.60;39.40
55771;DHT22;41687;-33.234;-60.334;2022-12-05T14:39:59;34.70;39.60
55771;DHT22;41687;-33.234;-60.334;2022-12-05T14:45:00;35.20;40.50
55771;DHT22;41687;-33.234;-60.334;2022-12-05T14:47:31;35.50;40.30
55771;DHT22;41687;-33.234;-60.334;2022-12-05T14:55:46;34.80;38.50
55771;DHT22;41687;-33.234;-60.334;2022-12-05T15:03:38;35.50;40.70
55771;DHT22;41687;-33.234;-60.334;2022-12-05T15:06:13;35.30;39.30
55771;DHT22;41687;-33.234;-60.334;2022-12-05T15:08:52;35.60;39.80
55771;DHT22;41687;-33.234;-60.334;2022-12-05T15:11:24;35.70;40.50
55771;DHT22;41687;-33.234;-60.334;2022-12-05T15:16:39;35.30;39.90
55771;DHT22;41687;-33.234;-60.334;2022-12-05T15:19:50;35.40;38.90
55771;DHT22;41687;-33.234;-60.334;2022-12-05T15:22:20;35.10;38.80
55771;DHT22;41687;-33.234;-60.334;2022-12-05T15:24:49;35.40;40.60
55771;DHT22;41687;-33.234;-60.334;2022-12-05T15:27:21;35.20;39.70
55771;DHT22;41687;-33.234;-60.334;2022-12-05T15:29:53;35.50;40.50
55771;DHT22;41687;-33.234;-60.334;2022-12-05T15:32:25;35.60;40.90
55771;DHT22;41687;-33.234;-60.334;2022-12-05T15:35:04;35.30;40.00
55771;DHT22;41687;-33.234;-60.334;2022-12-05T15:40:17;35.50;37.90
55771;DHT22;41687;-33.234;-60.334;2022-12-05T15:42:49;35.10;35.80
55771;DHT22;41687;-33.234;-60.334;2022-12-05T15:45:26;34.70;36.30
55771;DHT22;41687;-33.234;-60.334;2022-12-05T15:50:46;34.70;34.80
55771;DHT22;41687;-33.234;-60.334;2022-12-05T15:58:56;34.60;35.80
55771;DHT22;41687;-33.234;-60.334;2022-12-05T16:01:26;34.20;35.80
55771;DHT22;41687;-33.234;-60.334;2022-12-05T16:04:23;34.30;38.30
55771;DHT22;41687;-33.234;-60.334;2022-12-05T16:06:55;33.80;35.10
55771;DHT22;41687;-33.234;-60.334;2022-12-05T16:09:31;34.00;37.90
55771;DHT22;41687;-33.234;-60.334;2022-12-05T16:12:03;34.40;36.90
55771;DHT22;41687;-33.234;-60.334;2022-12-05T16:14:37;34.30;36.40
55771;DHT22;41687;-33.234;-60.334;2022-12-05T16:17:11;34.30;36.90
55771;DHT22;41687;-33.234;-60.334;2022-12-05T16:19:40;34.30;36.50
55771;DHT22;41687;-33.234;-60.334;2022-12-05T16:22:22;34.30;37.90
55771;DHT22;41687;-33.234;-60.334;2022-12-05T16:24:58;34.10;37.20
55771;DHT22;41687;-33.234;-60.334;2022-12-05T16:27:30;33.90;36.70
55771;DHT22;41687;-33.234;-60.334;2022-12-05T16:32:40;34.00;36.60
55771;DHT22;41687;-33.234;-60.334;2022-12-05T16:35:29;34.10;36.50
55771;DHT22;41687;-33.234;-60.334;2022-12-05T16:38:09;34.20;35.70
55771;DHT22;41687;-33.234;-60.334;2022-12-05T16:40:40;34.30;35.90
55771;DHT22;41687;-33.234;-60.334;2022-12-05T16:43:24;34.20;37.10
55771;DHT22;41687;-33.234;-60.334;2022-12-05T16:45:54;34.30;36.30
55771;DHT22;41687;-33.234;-60.334;2022-12-05T16:48:27;34.00;36.00
55771;DHT22;41687;-33.234;-60.334;2022-12-05T16:51:21;34.10;36.60
55771;DHT22;41687;-33.234;-60.334;2022-12-05T16:53:55;34.00;35.90
55771;DHT22;41687;-33.234;-60.334;2022-12-05T16:56:25;34.00;37.50
55771;DHT22;41687;-33.234;-60.334;2022-12-05T16:58:53;34.20;36.80
55771;DHT22;41687;-33.234;-60.334;2022-12-05T17:01:26;34.10;36.60
55771;DHT22;41687;-33.234;-60.334;2022-12-05T17:03:55;33.90;35.20
55771;DHT22;41687;-33.234;-60.334;2022-12-05T17:06:25;34.00;35.80
55771;DHT22;41687;-33.234;-60.334;2022-12-05T17:08:53;34.10;35.40
55771;DHT22;41687;-33.234;-60.334;2022-12-05T17:11:27;34.20;36.30
55771;DHT22;41687;-33.234;-60.334;2022-12-05T17:13:57;34.00;35.20
55771;DHT22;41687;-33.234;-60.334;2022-12-05T17:16:25;33.90;36.20
55771;DHT22;41687;-33.234;-60.334;2022-12-05T17:18:53;33.70;36.40
55771;DHT22;41687;-33.234;-60.334;2022-12-05T17:21:24;33.70;36.30
55771;DHT22;41687;-33.234;-60.334;2022-12-05T17:23:54;33.90;36.60
55771;DHT22;41687;-33.234;-60.334;2022-12-05T17:26:22;34.00;36.20
55771;DHT22;41687;-33.234;-60.334;2022-12-05T17:28:51;33.70;35.90
55771;DHT22;41687;-33.234;-60.334;2022-12-05T17:31:21;33.80;35.80
55771;DHT22;41687;-33.234;-60.334;2022-12-05T17:33:52;33.80;36.80
55771;DHT22;41687;-33.234;-60.334;2022-12-05T17:36:20;33.90;36.90
55771;DHT22;41687;-33.234;-60.334;2022-12-05T17:38:48;33.90;36.40
55771;DHT22;41687;-33.234;-60.334;2022-12-05T17:41:18;33.90;35.50
55771;DHT22;41687;-33.234;-60.334;2022-12-05T17:43:47;33.80;35.50
55771;DHT22;41687;-33.234;-60.334;2022-12-05T17:46:20;33.80;35.50
55771;DHT22;41687;-33.234;-60.334;2022-12-05T17:48:50;33.80;35.80
55771;DHT22;41687;-33.234;-60.334;2022-12-05T17:51:18;33.90;37.00
55771;DHT22;41687;-33.234;-60.334;2022-12-05T17:53:46;34.00;37.20
55771;DHT22;41687;-33.234;-60.334;2022-12-05T17:56:14;33.90;36.60
55771;DHT22;41687;-33.234;-60.334;2022-12-05T17:58:42;33.90;36.50
55771;DHT22;41687;-33.234;-60.334;2022-12-05T18:01:16;33.90;36.60
55771;DHT22;41687;-33.234;-60.334;2022-12-05T18:03:45;33.80;35.50
55771;DHT22;41687;-33.234;-60.334;2022-12-05T18:06:12;33.80;36.20
55771;DHT22;41687;-33.234;-60.334;2022-12-05T18:08:40;33.90;36.80
55771;DHT22;41687;-33.234;-60.334;2022-12-05T18:11:13;33.90;36.50
55771;DHT22;41687;-33.234;-60.334;2022-12-05T18:13:40;33.90;36.90
55771;DHT22;41687;-33.234;-60.334;2022-12-05T18:16:08;33.70;35.50
55771;DHT22;41687;-33.234;-60.334;2022-12-05T18:18:35;33.80;36.60
55771;DHT22;41687;-33.234;-60.334;2022-12-05T18:21:08;33.60;35.70
55771;DHT22;41687;-33.234;-60.334;2022-12-05T18:23:37;33.60;36.50
55771;DHT22;41687;-33.234;-60.334;2022-12-05T18:26:06;33.70;37.10
55771;DHT22;41687;-33.234;-60.334;2022-12-05T18:28:34;33.80;37.00